sensor_id;sensor_type;location;lat;lon;timestamp;P1;durP1;ratioP1;P2;durP2;ratioP2
26391;SDS011;14572;43.120;1.178;2022-12-13T05:39:55;1.85;;;1.25;;
26391;SDS011;14572;43.120;1.178;2022-12-13T05:42:25;2.28;;;1.27;;
26391;SDS011;14572;43.120;1.178;2022-12-13T05:45:05;2.55;;;1.58;;
26391;SDS011;14572;43.120;1.178;2022-12-13T05:47:33;3.38;;;1.60;;
26391;SDS011;14572;43.120;1.178;2022-12-13T05:50:01;1.83;;;1.10;;
26391;SDS011;14572;43.120;1.178;2022-12-13T05:52:29;2.13;;;1.10;;
26391;SDS011;14572;43.120;1.178;2022-12-13T05:54:57;1.13;;;0.73;;
26391;SDS011;14572;43.120;1.178;2022-12-13T05:57:24;5.38;;;1.33;;
26391;SDS011;14572;43.120;1.178;2022-12-13T05:59:55;130.95;;;3.88;;
26391;SDS011;14572;43.120;1.178;2022-12-13T06:02:22;3.17;;;0.90;;
26391;SDS011;14572;43.120;1.178;2022-12-13T06:04:49;2.65;;;1.13;;
26391;SDS011;14572;43.120;1.178;2022-12-13T06:07:17;6.57;;;1.10;;
26391;SDS011;14572;43.120;1.178;2022-12-13T06:09:44;4.85;;;1.73;;
26391;SDS011;14572;43.120;1.178;2022-12-13T06:12:13;2.85;;;0.70;;
26391;SDS011;14572;43.120;1.178;2022-12-13T06:14:41;4.03;;;0.70;;
26391;SDS011;14572;43.120;1.178;2022-12-13T06:17:08;14.95;;;1.10;;
26391;SDS011;14572;43.120;1.178;2022-12-13T06:19:36;0.68;;;0.60;;
26391;SDS011;14572;43.120;1.178;2022-12-13T06:22:03;9.68;;;0.77;;
26391;SDS011;14572;43.120;1.178;2022-12-13T06:24:31;16.55;;;0.60;;
26391;SDS011;14572;43.120;1.178;2022-12-13T06:30:04;2.17;;;1.00;;
26391;SDS011;14572;43.120;1.178;2022-12-13T06:32:32;3.15;;;0.90;;
26391;SDS011;14572;43.120;1.178;2022-12-13T06:35:00;1.70;;;1.10;;
26391;SDS011;14572;43.120;1.178;2022-12-13T06:37:27;3.80;;;1.38;;
26391;SDS011;14572;43.120;1.178;2022-12-13T06:46:41;3.65;;;1.83;;
26391;SDS011;14572;43.120;1.178;2022-12-13T06:52:12;3.60;;;1.35;;
26391;SDS011;14572;43.120;1.178;2022-12-13T06:54:40;5.10;;;1.85;;
26391;SDS011;14572;43.120;1.178;2022-12-13T06:57:08;7.80;;;1.58;;
26391;SDS011;14572;43.120;1.178;2022-12-13T06:59:36;3.53;;;1.40;;
26391;SDS011;14572;43.120;1.178;2022-12-13T07:02:05;3.53;;;1.50;;
26391;SDS011;14572;43.120;1.178;2022-12-13T07:04:32;2.20;;;1.35;;
26391;SDS011;14572;43.120;1.178;2022-12-13T07:07:02;2.53;;;1.58;;
26391;SDS011;14572;43.120;1.178;2022-12-13T07:09:30;64.32;;;3.35;;
26391;SDS011;14572;43.120;1.178;2022-12-13T07:11:57;4.15;;;1.23;;
26391;SDS011;14572;43.120;1.178;2022-12-13T07:17:50;2.20;;;1.17;;
26391;SDS011;14572;43.120;1.178;2022-12-13T07:20:31;3.13;;;1.00;;
26391;SDS011;14572;43.120;1.178;2022-12-13T07:22:59;4.03;;;1.88;;
26391;SDS011;14572;43.120;1.178;2022-12-13T07:25:39;3.30;;;1.70;;
26391;SDS011;14572;43.120;1.178;2022-12-13T07:31:14;5.32;;;1.30;;
26391;SDS011;14572;43.120;1.178;2022-12-13T07:33:43;5.05;;;1.35;;
26391;SDS011;14572;43.120;1.178;2022-12-13T07:39:32;1.55;;;0.95;;
26391;SDS011;14572;43.120;1.178;2022-12-13T07:42:01;3.35;;;1.35;;
26391;SDS011;14572;43.120;1.178;2022-12-13T07:47:50;4.35;;;1.88;;
26391;SDS011;14572;43.120;1.178;2022-12-13T07:50:19;7.10;;;2.05;;
26391;SDS011;14572;43.120;1.178;2022-12-13T07:52:46;3.53;;;1.55;;
26391;SDS011;14572;43.120;1.178;2022-12-13T07:55:15;2.95;;;1.52;;
26391;SDS011;14572;43.120;1.178;2022-12-13T07:57:44;5.70;;;2.72;;
26391;SDS011;14572;43.120;1.178;2022-12-13T08:00:11;5.65;;;2.97;;
26391;SDS011;14572;43.120;1.178;2022-12-13T08:02:39;5.38;;;3.33;;
26391;SDS011;14572;43.120;1.178;2022-12-13T08:05:07;9.60;;;4.75;;
26391;SDS011;14572;43.120;1.178;2022-12-13T08:07:38;6.03;;;3.92;;
26391;SDS011;14572;43.120;1.178;2022-12-13T08:10:06;5.18;;;3.10;;
26391;SDS011;14572;43.120;1.178;2022-12-13T08:12:33;4.35;;;3.20;;
26391;SDS011;14572;43.120;1.178;2022-12-13T08:15:00;7.05;;;3.78;;
26391;SDS011;14572;43.120;1.178;2022-12-13T08:17:29;5.20;;;3.25;;
26391;SDS011;14572;43.120;1.178;2022-12-13T08:19:56;5.75;;;3.10;;
26391;SDS011;14572;43.120;1.178;2022-12-13T08:22:23;6.65;;;3.00;;
26391;SDS011;14572;43.120;1.178;2022-12-13T08:24:52;3.65;;;2.92;;
26391;SDS011;14572;43.120;1.178;2022-12-13T08:27:19;3.20;;;2.17;;
26391;SDS011;14572;43.120;1.178;2022-12-13T08:29:46;5.30;;;2.55;;
26391;SDS011;14572;43.120;1.178;2022-12-13T08:32:13;4.97;;;2.47;;
26391;SDS011;14572;43.120;1.178;2022-12-13T08:34:40;3.00;;;1.85;;
26391;SDS011;14572;43.120;1.178;2022-12-13T08:37:14;4.25;;;2.30;;
26391;SDS011;14572;43.120;1.178;2022-12-13T08:39:42;5.25;;;2.53;;
26391;SDS011;14572;43.120;1.178;2022-12-13T08:42:11;3.47;;;2.45;;
26391;SDS011;14572;43.120;1.178;2022-12-13T08:44:39;8.15;;;2.05;;
26391;SDS011;14572;43.120;1.178;2022-12-13T08:47:08;3.30;;;1.98;;
26391;SDS011;14572;43.120;1.178;2022-12-13T08:49:40;5.13;;;2.20;;
26391;SDS011;14572;43.120;1.178;2022-12-13T08:52:08;6.15;;;2.25;;
26391;SDS011;14572;43.120;1.178;2022-12-13T08:54:35;7.40;;;1.98;;
26391;SDS011;14572;43.120;1.178;2022-12-13T08:57:05;6.70;;;2.30;;
26391;SDS011;14572;43.120;1.178;2022-12-13T09:16:38;3.75;;;2.67;;
26391;SDS011;14572;43.120;1.178;2022-12-13T09:19:07;7.70;;;4.07;;
26391;SDS011;14572;43.120;1.178;2022-12-13T09:24:47;10.35;;;4.18;;
26391;SDS011;14572;43.120;1.178;2022-12-13T09:27:17;7.90;;;4.35;;
26391;SDS011;14572;43.120;1.178;2022-12-13T09:29:45;12.90;;;5.13;;
26391;SDS011;14572;43.120;1.178;2022-12-13T09:32:14;9.43;;;4.95;;
26391;SDS011;14572;43.120;1.178;2022-12-13T09:34:41;8.57;;;4.85;;
26391;SDS011;14572;43.120;1.178;2022-12-13T09:37:09;15.32;;;7.50;;
26391;SDS011;14572;43.120;1.178;2022-12-13T09:39:37;15.63;;;10.38;;
26391;SDS011;14572;43.120;1.178;2022-12-13T09:42:05;18.95;;;13.77;;
26391;SDS011;14572;43.120;1.178;2022-12-13T09:44:37;15.15;;;8.98;;
26391;SDS011;14572;43.120;1.178;2022-12-13T09:47:06;14.68;;;9.35;;
26391;SDS011;14572;43.120;1.178;2022-12-13T09:49:48;17.38;;;9.10;;
26391;SDS011;14572;43.120;1.178;2022-12-13T09:52:16;16.02;;;8.50;;
26391;SDS011;14572;43.120;1.178;2022-12-13T09:54:52;17.02;;;8.25;;
26391;SDS011;14572;43.120;1.178;2022-12-13T09:57:20;14.10;;;7.93;;
26391;SDS011;14572;43.120;1.178;2022-12-13T09:59:49;16.10;;;7.20;;
26391;SDS011;14572;43.120;1.178;2022-12-13T10:02:20;8.45;;;5.70;;
26391;SDS011;14572;43.120;1.178;2022-12-13T10:04:48;8.98;;;5.13;;
26391;SDS011;14572;43.120;1.178;2022-12-13T10:07:17;23.80;;;14.43;;
26391;SDS011;14572;43.120;1.178;2022-12-13T10:09:45;24.65;;;15.68;;
26391;SDS011;14572;43.120;1.178;2022-12-13T10:12:12;31.77;;;20.95;;
26391;SDS011;14572;43.120;1.178;2022-12-13T10:14:41;36.55;;;19.58;;
26391;SDS011;14572;43.120;1.178;2022-12-13T10:17:11;29.20;;;16.55;;
26391;SDS011;14572;43.120;1.178;2022-12-13T10:19:44;17.80;;;11.32;;
26391;SDS011;14572;43.120;1.178;2022-12-13T10:22:15;15.82;;;10.95;;
26391;SDS011;14572;43.120;1.178;2022-12-13T10:24:47;14.77;;;7.80;;
26391;SDS011;14572;43.120;1.178;2022-12-13T10:27:17;12.32;;;5.75;;
26391;SDS011;14572;43.120;1.178;2022-12-13T10:29:55;10.02;;;4.88;;
26391;SDS011;14572;43.120;1.178;2022-12-13T10:32:26;12.63;;;5.05;;
26391;SDS011;14572;43.120;1.178;2022-12-13T10:34:55;6.90;;;4.57;;
26391;SDS011;14572;43.120;1.178;2022-12-13T10:37:26;10.13;;;4.65;;
26391;SDS011;14572;43.120;1.178;2022-12-13T10:39:55;12.73;;;4.75;;
26391;SDS011;14572;43.120;1.178;2022-12-13T10:42:22;7.97;;;4.43;;
26391;SDS011;14572;43.120;1.178;2022-12-13T10:45:07;10.88;;;4.40;;
26391;SDS011;14572;43.120;1.178;2022-12-13T10:47:40;6.20;;;4.10;;
26391;SDS011;14572;43.120;1.178;2022-12-13T10:50:21;11.10;;;4.75;;
26391;SDS011;14572;43.120;1.178;2022-12-13T10:52:53;15.32;;;6.13;;
26391;SDS011;14572;43.120;1.178;2022-12-13T10:55:23;10.70;;;5.43;;
26391;SDS011;14572;43.120;1.178;2022-12-13T10:57:55;11.60;;;5.93;;
26391;SDS011;14572;43.120;1.178;2022-12-13T11:00:30;14.60;;;6.00;;
26391;SDS011;14572;43.120;1.178;2022-12-13T11:03:01;10.40;;;5.40;;
26391;SDS011;14572;43.120;1.178;2022-12-13T11:05:33;8.07;;;4.35;;
26391;SDS011;14572;43.120;1.178;2022-12-13T11:10:52;8.05;;;4.75;;
26391;SDS011;14572;43.120;1.178;2022-12-13T11:13:28;10.00;;;3.92;;
26391;SDS011;14572;43.120;1.178;2022-12-13T11:16:01;7.90;;;3.88;;
26391;SDS011;14572;43.120;1.178;2022-12-13T11:18:30;8.88;;;3.40;;
26391;SDS011;14572;43.120;1.178;2022-12-13T11:21:02;6.55;;;3.05;;
26391;SDS011;14572;43.120;1.178;2022-12-13T11:23:32;8.55;;;3.42;;
26391;SDS011;14572;43.120;1.178;2022-12-13T11:26:04;6.10;;;3.22;;
26391;SDS011;14572;43.120;1.178;2022-12-13T11:28:46;7.50;;;5.05;;
26391;SDS011;14572;43.120;1.178;2022-12-13T11:31:23;8.38;;;3.85;;
26391;SDS011;14572;43.120;1.178;2022-12-13T11:33:55;5.32;;;2.88;;
26391;SDS011;14572;43.120;1.178;2022-12-13T11:36:30;11.10;;;5.05;;
26391;SDS011;14572;43.120;1.178;2022-12-13T11:39:08;24.77;;;19.38;;
26391;SDS011;14572;43.120;1.178;2022-12-13T11:41:41;8.77;;;6.13;;
26391;SDS011;14572;43.120;1.178;2022-12-13T11:44:13;6.25;;;2.92;;
26391;SDS011;14572;43.120;1.178;2022-12-13T11:46:44;7.90;;;4.28;;
26391;SDS011;14572;43.120;1.178;2022-12-13T11:49:13;9.88;;;2.95;;
26391;SDS011;14572;43.120;1.178;2022-12-13T11:51:46;9.10;;;3.25;;
26391;SDS011;14572;43.120;1.178;2022-12-13T11:54:19;4.18;;;2.03;;
26391;SDS011;14572;43.120;1.178;2022-12-13T11:56:49;8.70;;;3.22;;
26391;SDS011;14572;43.120;1.178;2022-12-13T11:59:21;6.38;;;2.10;;
26391;SDS011;14572;43.120;1.178;2022-12-13T12:01:53;6.05;;;3.20;;
26391;SDS011;14572;43.120;1.178;2022-12-13T12:04:25;6.60;;;3.47;;
26391;SDS011;14572;43.120;1.178;2022-12-13T12:06:59;5.40;;;2.78;;
26391;SDS011;14572;43.120;1.178;2022-12-13T12:09:30;7.53;;;2.50;;
26391;SDS011;14572;43.120;1.178;2022-12-13T12:11:58;4.00;;;2.17;;
26391;SDS011;14572;43.120;1.178;2022-12-13T12:14:32;4.47;;;2.72;;
26391;SDS011;14572;43.120;1.178;2022-12-13T12:17:04;6.18;;;2.70;;
26391;SDS011;14572;43.120;1.178;2022-12-13T12:19:33;8.10;;;3.25;;
26391;SDS011;14572;43.120;1.178;2022-12-13T12:25:05;5.00;;;2.13;;
26391;SDS011;14572;43.120;1.178;2022-12-13T12:27:39;8.85;;;2.60;;
26391;SDS011;14572;43.120;1.178;2022-12-13T12:30:14;6.40;;;1.95;;
26391;SDS011;14572;43.120;1.178;2022-12-13T12:32:46;3.67;;;2.33;;
26391;SDS011;14572;43.120;1.178;2022-12-13T12:38:38;3.60;;;2.00;;
26391;SDS011;14572;43.120;1.178;2022-12-13T12:41:19;2.17;;;1.63;;
26391;SDS011;14572;43.120;1.178;2022-12-13T12:43:53;4.43;;;1.65;;
26391;SDS011;14572;43.120;1.178;2022-12-13T12:46:33;4.82;;;1.90;;
26391;SDS011;14572;43.120;1.178;2022-12-13T12:49:12;7.18;;;1.80;;
26391;SDS011;14572;43.120;1.178;2022-12-13T12:51:58;8.05;;;1.60;;
26391;SDS011;14572;43.120;1.178;2022-12-13T12:54:36;3.25;;;1.50;;
26391;SDS011;14572;43.120;1.178;2022-12-13T12:57:10;2.85;;;1.70;;
26391;SDS011;14572;43.120;1.178;2022-12-13T12:59:47;3.95;;;1.70;;
26391;SDS011;14572;43.120;1.178;2022-12-13T13:02:22;4.95;;;1.60;;
26391;SDS011;14572;43.120;1.178;2022-12-13T13:04:52;6.70;;;1.67;;
26391;SDS011;14572;43.120;1.178;2022-12-13T13:07:23;5.05;;;1.73;;
26391;SDS011;14572;43.120;1.178;2022-12-13T13:09:57;5.75;;;1.63;;
26391;SDS011;14572;43.120;1.178;2022-12-13T13:12:25;12.63;;;4.53;;
26391;SDS011;14572;43.120;1.178;2022-12-13T13:14:53;9.40;;;2.83;;
26391;SDS011;14572;43.120;1.178;2022-12-13T13:20:19;10.10;;;2.83;;
26391;SDS011;14572;43.120;1.178;2022-12-13T13:22:47;10.63;;;5.00;;
26391;SDS011;14572;43.120;1.178;2022-12-13T13:25:23;17.13;;;6.72;;
26391;SDS011;14572;43.120;1.178;2022-12-13T13:28:02;11.95;;;6.70;;
26391;SDS011;14572;43.120;1.178;2022-12-13T13:30:31;14.75;;;8.20;;
26391;SDS011;14572;43.120;1.178;2022-12-13T13:32:59;14.18;;;8.02;;
26391;SDS011;14572;43.120;1.178;2022-12-13T13:41:39;5.68;;;3.97;;
26391;SDS011;14572;43.120;1.178;2022-12-13T13:47:11;9.15;;;3.17;;
26391;SDS011;14572;43.120;1.178;2022-12-13T13:49:42;10.38;;;3.58;;
26391;SDS011;14572;43.120;1.178;2022-12-13T13:52:17;8.60;;;3.95;;
26391;SDS011;14572;43.120;1.178;2022-12-13T13:58:02;7.82;;;3.40;;
26391;SDS011;14572;43.120;1.178;2022-12-13T14:00:46;5.57;;;2.75;;
26391;SDS011;14572;43.120;1.178;2022-12-13T14:06:43;4.47;;;2.38;;
26391;SDS011;14572;43.120;1.178;2022-12-13T14:12:23;7.15;;;2.67;;
26391;SDS011;14572;43.120;1.178;2022-12-13T14:15:24;6.03;;;2.70;;
26391;SDS011;14572;43.120;1.178;2022-12-13T14:23:51;3.83;;;2.20;;
26391;SDS011;14572;43.120;1.178;2022-12-13T14:26:36;6.20;;;2.00;;
26391;SDS011;14572;43.120;1.178;2022-12-13T14:29:10;5.60;;;1.98;;
26391;SDS011;14572;43.120;1.178;2022-12-13T14:35:03;5.15;;;1.65;;
26391;SDS011;14572;43.120;1.178;2022-12-13T14:37:31;7.20;;;1.80;;
26391;SDS011;14572;43.120;1.178;2022-12-13T14:40:10;3.95;;;1.52;;
26391;SDS011;14572;43.120;1.178;2022-12-13T14:42:51;5.32;;;1.60;;
26391;SDS011;14572;43.120;1.178;2022-12-13T14:45:21;2.90;;;1.40;;
26391;SDS011;14572;43.120;1.178;2022-12-13T14:47:50;3.40;;;1.45;;
26391;SDS011;14572;43.120;1.178;2022-12-13T14:53:41;4.18;;;1.58;;
26391;SDS011;14572;43.120;1.178;2022-12-13T14:56:09;5.25;;;1.67;;
26391;SDS011;14572;43.120;1.178;2022-12-13T14:58:38;5.82;;;1.90;;
26391;SDS011;14572;43.120;1.178;2022-12-13T15:01:43;7.55;;;3.53;;
26391;SDS011;14572;43.120;1.178;2022-12-13T15:04:17;5.80;;;1.75;;
26391;SDS011;14572;43.120;1.178;2022-12-13T15:06:45;3.83;;;1.52;;
26391;SDS011;14572;43.120;1.178;2022-12-13T15:09:16;6.10;;;1.55;;
26391;SDS011;14572;43.120;1.178;2022-12-13T15:11:44;5.65;;;1.05;;
26391;SDS011;14572;43.120;1.178;2022-12-13T15:14:24;4.90;;;1.23;;
26391;SDS011;14572;43.120;1.178;2022-12-13T15:16:52;4.68;;;1.10;;
26391;SDS011;14572;43.120;1.178;2022-12-13T15:19:25;3.25;;;1.50;;
26391;SDS011;14572;43.120;1.178;2022-12-13T15:32:02;8.27;;;2.00;;
26391;SDS011;14572;43.120;1.178;2022-12-13T15:37:52;8.18;;;1.70;;
26391;SDS011;14572;43.120;1.178;2022-12-13T15:40:20;4.88;;;2.20;;
26391;SDS011;14572;43.120;1.178;2022-12-13T15:43:19;3.50;;;2.13;;
26391;SDS011;14572;43.120;1.178;2022-12-13T15:45:51;5.28;;;1.75;;
26391;SDS011;14572;43.120;1.178;2022-12-13T15:51:53;3.58;;;1.98;;
26391;SDS011;14572;43.120;1.178;2022-12-13T15:54:22;3.97;;;1.80;;
26391;SDS011;14572;43.120;1.178;2022-12-13T15:56:58;3.42;;;1.80;;
26391;SDS011;14572;43.120;1.178;2022-12-13T15:59:37;7.55;;;2.35;;
26391;SDS011;14572;43.120;1.178;2022-12-13T16:02:08;4.43;;;2.20;;
26391;SDS011;14572;43.120;1.178;2022-12-13T16:04:40;8.27;;;2.67;;
26391;SDS011;14572;43.120;1.178;2022-12-13T16:07:15;6.80;;;2.20;;
26391;SDS011;14572;43.120;1.178;2022-12-13T16:09:46;8.32;;;2.40;;
26391;SDS011;14572;43.120;1.178;2022-12-13T16:12:17;6.45;;;2.35;;
26391;SDS011;14572;43.120;1.178;2022-12-13T16:14:50;4.65;;;2.40;;
26391;SDS011;14572;43.120;1.178;2022-12-13T16:17:21;5.97;;;2.20;;
26391;SDS011;14572;43.120;1.178;2022-12-13T16:19:51;2.85;;;2.03;;
26391;SDS011;14572;43.120;1.178;2022-12-13T16:22:45;6.50;;;2.28;;
26391;SDS011;14572;43.120;1.178;2022-12-13T16:25:17;3.63;;;1.73;;
26391;SDS011;14572;43.120;1.178;2022-12-13T16:27:45;5.53;;;2.08;;
26391;SDS011;14572;43.120;1.178;2022-12-13T16:30:14;2.38;;;1.80;;
26391;SDS011;14572;43.120;1.178;2022-12-13T16:32:48;6.32;;;2.05;;
26391;SDS011;14572;43.120;1.178;2022-12-13T16:35:16;5.35;;;2.28;;
26391;SDS011;14572;43.120;1.178;2022-12-13T16:37:44;4.20;;;2.13;;
26391;SDS011;14572;43.120;1.178;2022-12-13T16:40:19;5.15;;;2.33;;
26391;SDS011;14572;43.120;1.178;2022-12-13T16:42:49;5.05;;;2.33;;
26391;SDS011;14572;43.120;1.178;2022-12-13T16:45:16;2.65;;;2.30;;
26391;SDS011;14572;43.120;1.178;2022-12-13T16:47:45;6.13;;;2.53;;
26391;SDS011;14572;43.120;1.178;2022-12-13T16:50:13;7.03;;;2.40;;
26391;SDS011;14572;43.120;1.178;2022-12-13T16:52:43;12.55;;;1.90;;
26391;SDS011;14572;43.120;1.178;2022-12-13T16:55:12;8.32;;;2.00;;
26391;SDS011;14572;43.120;1.178;2022-12-13T16:57:39;7.90;;;2.17;;
26391;SDS011;14572;43.120;1.178;2022-12-13T17:00:09;5.07;;;2.08;;
26391;SDS011;14572;43.120;1.178;2022-12-13T17:02:37;5.80;;;2.45;;
26391;SDS011;14572;43.120;1.178;2022-12-13T17:05:05;6.10;;;2.08;;
26391;SDS011;14572;43.120;1.178;2022-12-13T17:07:33;4.50;;;1.95;;
26391;SDS011;14572;43.120;1.178;2022-12-13T17:10:03;5.15;;;1.80;;
26391;SDS011;14572;43.120;1.178;2022-12-13T17:12:32;54.70;;;25.10;;
26391;SDS011;14572;43.120;1.178;2022-12-13T17:15:02;11.73;;;6.47;;
26391;SDS011;14572;43.120;1.178;2022-12-13T17:17:29;11.63;;;4.82;;
26391;SDS011;14572;43.120;1.178;2022-12-13T17:19:56;10.57;;;5.00;;
26391;SDS011;14572;43.120;1.178;2022-12-13T17:22:23;8.27;;;4.18;;
26391;SDS011;14572;43.120;1.178;2022-12-13T17:24:51;34.00;;;19.38;;
26391;SDS011;14572;43.120;1.178;2022-12-13T17:27:19;27.65;;;14.20;;
26391;SDS011;14572;43.120;1.178;2022-12-13T17:29:46;15.93;;;4.97;;
26391;SDS011;14572;43.120;1.178;2022-12-13T17:32:14;11.18;;;4.43;;
26391;SDS011;14572;43.120;1.178;2022-12-13T17:34:41;7.60;;;3.85;;
26391;SDS011;14572;43.120;1.178;2022-12-13T17:37:09;7.15;;;2.95;;
26391;SDS011;14572;43.120;1.178;2022-12-13T17:39:36;5.65;;;3.08;;
26391;SDS011;14572;43.120;1.178;2022-12-13T17:42:03;9.43;;;2.67;;
26391;SDS011;14572;43.120;1.178;2022-12-13T17:44:32;12.27;;;2.15;;
26391;SDS011;14572;43.120;1.178;2022-12-13T17:46:59;4.75;;;1.90;;
26391;SDS011;14572;43.120;1.178;2022-12-13T17:49:26;12.05;;;5.15;;
26391;SDS011;14572;43.120;1.178;2022-12-13T17:51:54;10.48;;;4.72;;
26391;SDS011;14572;43.120;1.178;2022-12-13T17:54:21;11.45;;;4.30;;
26391;SDS011;14572;43.120;1.178;2022-12-13T17:56:49;5.38;;;3.85;;
26391;SDS011;14572;43.120;1.178;2022-12-13T17:59:16;9.15;;;3.30;;
26391;SDS011;14572;43.120;1.178;2022-12-13T18:01:45;9.88;;;3.10;;
26391;SDS011;14572;43.120;1.178;2022-12-13T18:04:13;10.52;;;3.42;;
26391;SDS011;14572;43.120;1.178;2022-12-13T18:06:41;6.90;;;3.08;;
26391;SDS011;14572;43.120;1.178;2022-12-13T18:09:09;5.07;;;2.63;;
26391;SDS011;14572;43.120;1.178;2022-12-13T18:11:38;6.75;;;2.33;;
26391;SDS011;14572;43.120;1.178;2022-12-13T18:14:06;7.38;;;3.65;;
26391;SDS011;14572;43.120;1.178;2022-12-13T18:16:34;6.70;;;3.42;;
26391;SDS011;14572;43.120;1.178;2022-12-13T18:19:04;7.30;;;3.92;;
26391;SDS011;14572;43.120;1.178;2022-12-13T18:21:32;5.47;;;3.75;;
26391;SDS011;14572;43.120;1.178;2022-12-13T18:23:59;6.68;;;3.72;;
26391;SDS011;14572;43.120;1.178;2022-12-13T18:26:26;5.10;;;3.95;;
26391;SDS011;14572;43.120;1.178;2022-12-13T18:28:53;5.90;;;3.75;;
26391;SDS011;14572;43.120;1.178;2022-12-13T18:31:21;5.75;;;4.07;;
26391;SDS011;14572;43.120;1.178;2022-12-13T18:33:49;10.13;;;3.78;;
26391;SDS011;14572;43.120;1.178;2022-12-13T18:36:20;6.00;;;3.10;;
26391;SDS011;14572;43.120;1.178;2022-12-13T18:38:48;6.15;;;3.20;;
26391;SDS011;14572;43.120;1.178;2022-12-13T18:41:16;4.25;;;3.30;;
26391;SDS011;14572;43.120;1.178;2022-12-13T18:43:45;8.20;;;3.40;;
26391;SDS011;14572;43.120;1.178;2022-12-13T18:46:13;7.75;;;3.13;;
26391;SDS011;14572;43.120;1.178;2022-12-13T18:48:41;5.35;;;3.10;;
26391;SDS011;14572;43.120;1.178;2022-12-13T18:51:10;5.43;;;2.63;;
26391;SDS011;14572;43.120;1.178;2022-12-13T18:53:38;4.38;;;2.90;;
26391;SDS011;14572;43.120;1.178;2022-12-13T18:56:07;5.43;;;3.03;;
26391;SDS011;14572;43.120;1.178;2022-12-13T18:58:35;17.13;;;5.82;;
26391;SDS011;14572;43.120;1.178;2022-12-13T19:01:03;10.48;;;7.88;;
26391;SDS011;14572;43.120;1.178;2022-12-13T19:03:32;12.48;;;6.05;;
26391;SDS011;14572;43.120;1.178;2022-12-13T19:06:01;5.90;;;4.35;;
26391;SDS011;14572;43.120;1.178;2022-12-13T19:08:29;6.32;;;3.80;;
26391;SDS011;14572;43.120;1.178;2022-12-13T19:10:59;7.00;;;3.47;;
26391;SDS011;14572;43.120;1.178;2022-12-13T19:13:27;7.55;;;4.30;;
26391;SDS011;14572;43.120;1.178;2022-12-13T19:15:55;11.63;;;5.13;;
26391;SDS011;14572;43.120;1.178;2022-12-13T19:18:23;12.25;;;8.95;;
26391;SDS011;14572;43.120;1.178;2022-12-13T19:20:51;13.95;;;9.30;;
26391;SDS011;14572;43.120;1.178;2022-12-13T19:23:19;11.15;;;8.52;;
26391;SDS011;14572;43.120;1.178;2022-12-13T19:25:47;10.15;;;7.70;;
26391;SDS011;14572;43.120;1.178;2022-12-13T19:28:15;19.20;;;8.20;;
26391;SDS011;14572;43.120;1.178;2022-12-13T19:30:43;17.17;;;9.02;;
26391;SDS011;14572;43.120;1.178;2022-12-13T19:33:11;7.13;;;5.47;;
26391;SDS011;14572;43.120;1.178;2022-12-13T19:35:40;6.15;;;3.00;;
26391;SDS011;14572;43.120;1.178;2022-12-13T19:38:08;10.90;;;3.00;;
26391;SDS011;14572;43.120;1.178;2022-12-13T19:40:37;7.88;;;3.60;;
26391;SDS011;14572;43.120;1.178;2022-12-13T19:43:04;6.13;;;3.22;;
26391;SDS011;14572;43.120;1.178;2022-12-13T19:45:33;9.80;;;6.95;;
26391;SDS011;14572;43.120;1.178;2022-12-13T19:48:00;8.40;;;6.03;;
26391;SDS011;14572;43.120;1.178;2022-12-13T19:50:28;11.23;;;6.25;;
26391;SDS011;14572;43.120;1.178;2022-12-13T19:52:56;6.47;;;2.90;;
26391;SDS011;14572;43.120;1.178;2022-12-13T19:55:23;64.88;;;4.70;;
26391;SDS011;14572;43.120;1.178;2022-12-13T19:57:50;6.32;;;3.25;;
26391;SDS011;14572;43.120;1.178;2022-12-13T20:00:17;6.93;;;4.72;;
26391;SDS011;14572;43.120;1.178;2022-12-13T20:02:46;12.40;;;7.63;;
26391;SDS011;14572;43.120;1.178;2022-12-13T20:05:14;19.20;;;13.70;;
26391;SDS011;14572;43.120;1.178;2022-12-13T20:07:42;20.17;;;11.70;;
26391;SDS011;14572;43.120;1.178;2022-12-13T20:10:09;10.50;;;6.22;;
26391;SDS011;14572;43.120;1.178;2022-12-13T20:12:37;12.68;;;7.47;;
26391;SDS011;14572;43.120;1.178;2022-12-13T20:15:04;14.82;;;9.98;;
26391;SDS011;14572;43.120;1.178;2022-12-13T20:17:32;13.20;;;9.02;;
26391;SDS011;14572;43.120;1.178;2022-12-13T20:20:02;14.52;;;9.50;;
26391;SDS011;14572;43.120;1.178;2022-12-13T20:22:30;14.65;;;8.52;;
26391;SDS011;14572;43.120;1.178;2022-12-13T20:24:57;13.77;;;9.65;;
26391;SDS011;14572;43.120;1.178;2022-12-13T20:27:25;17.10;;;9.75;;
26391;SDS011;14572;43.120;1.178;2022-12-13T20:29:53;15.70;;;10.38;;
26391;SDS011;14572;43.120;1.178;2022-12-13T20:32:20;18.10;;;10.75;;
26391;SDS011;14572;43.120;1.178;2022-12-13T20:34:48;16.80;;;10.25;;
26391;SDS011;14572;43.120;1.178;2022-12-13T20:37:17;14.55;;;10.10;;
26391;SDS011;14572;43.120;1.178;2022-12-13T20:39:45;14.40;;;9.32;;
26391;SDS011;14572;43.120;1.178;2022-12-13T20:42:12;14.38;;;9.68;;
26391;SDS011;14572;43.120;1.178;2022-12-13T20:44:39;13.38;;;9.18;;
26391;SDS011;14572;43.120;1.178;2022-12-13T20:47:06;16.73;;;9.52;;
26391;SDS011;14572;43.120;1.178;2022-12-13T20:49:33;15.63;;;9.23;;
26391;SDS011;14572;43.120;1.178;2022-12-13T20:52:01;15.73;;;9.43;;
26391;SDS011;14572;43.120;1.178;2022-12-13T20:54:30;14.57;;;9.27;;
26391;SDS011;14572;43.120;1.178;2022-12-13T20:56:57;12.77;;;9.30;;
26391;SDS011;14572;43.120;1.178;2022-12-13T20:59:24;15.02;;;9.18;;
26391;SDS011;14572;43.120;1.178;2022-12-13T21:01:51;16.30;;;9.23;;
26391;SDS011;14572;43.120;1.178;2022-12-13T21:04:18;13.65;;;8.27;;
26391;SDS011;14572;43.120;1.178;2022-12-13T21:06:45;12.05;;;9.05;;
26391;SDS011;14572;43.120;1.178;2022-12-13T21:09:13;11.13;;;7.55;;
26391;SDS011;14572;43.120;1.178;2022-12-13T21:11:42;13.02;;;8.27;;
26391;SDS011;14572;43.120;1.178;2022-12-13T21:14:11;16.20;;;7.85;;
26391;SDS011;14572;43.120;1.178;2022-12-13T21:16:40;11.88;;;7.70;;
26391;SDS011;14572;43.120;1.178;2022-12-13T21:19:09;13.13;;;8.20;;
26391;SDS011;14572;43.120;1.178;2022-12-13T21:21:38;12.45;;;7.47;;
26391;SDS011;14572;43.120;1.178;2022-12-13T21:24:05;12.63;;;7.35;;
26391;SDS011;14572;43.120;1.178;2022-12-13T21:26:33;12.73;;;7.53;;
26391;SDS011;14572;43.120;1.178;2022-12-13T21:29:03;13.38;;;7.53;;
26391;SDS011;14572;43.120;1.178;2022-12-13T21:31:30;9.57;;;7.18;;
26391;SDS011;14572;43.120;1.178;2022-12-13T21:33:58;9.48;;;6.78;;
26391;SDS011;14572;43.120;1.178;2022-12-13T21:36:26;11.27;;;7.68;;
26391;SDS011;14572;43.120;1.178;2022-12-13T21:38:55;14.18;;;7.32;;
26391;SDS011;14572;43.120;1.178;2022-12-13T21:41:23;12.32;;;7.95;;
26391;SDS011;14572;43.120;1.178;2022-12-13T21:43:51;10.32;;;7.20;;
26391;SDS011;14572;43.120;1.178;2022-12-13T21:46:20;10.23;;;7.20;;
26391;SDS011;14572;43.120;1.178;2022-12-13T21:48:49;10.88;;;6.85;;
26391;SDS011;14572;43.120;1.178;2022-12-13T21:51:17;10.82;;;7.97;;
26391;SDS011;14572;43.120;1.178;2022-12-13T21:53:45;13.85;;;7.00;;
26391;SDS011;14572;43.120;1.178;2022-12-13T21:56:14;9.90;;;6.78;;
26391;SDS011;14572;43.120;1.178;2022-12-13T21:58:59;12.32;;;7.05;;
26391;SDS011;14572;43.120;1.178;2022-12-13T22:01:44;10.13;;;6.90;;
26391;SDS011;14572;43.120;1.178;2022-12-13T22:04:30;11.18;;;7.50;;
26391;SDS011;14572;43.120;1.178;2022-12-13T22:06:58;12.38;;;8.68;;
26391;SDS011;14572;43.120;1.178;2022-12-13T22:09:25;13.85;;;7.82;;
26391;SDS011;14572;43.120;1.178;2022-12-13T22:11:52;11.15;;;8.00;;
26391;SDS011;14572;43.120;1.178;2022-12-13T22:14:19;12.90;;;7.57;;
26391;SDS011;14572;43.120;1.178;2022-12-13T22:16:48;12.70;;;7.93;;
26391;SDS011;14572;43.120;1.178;2022-12-13T22:19:15;12.18;;;8.02;;
26391;SDS011;14572;43.120;1.178;2022-12-13T22:21:43;14.48;;;9.30;;
26391;SDS011;14572;43.120;1.178;2022-12-13T22:24:11;15.98;;;10.15;;
26391;SDS011;14572;43.120;1.178;2022-12-13T22:26:38;13.10;;;8.70;;